sensor_id;sensor_type;location;lat;lon;timestamp;temperature;humidity
34522;DHT22;25561;48.888;8.736;2023-02-24T06:50:05;6.70;99.90
34522;DHT22;25561;48.888;8.736;2023-02-24T06:53:07;6.90;99.90
34522;DHT22;25561;48.888;8.736;2023-02-24T06:56:17;7.30;99.90
34522;DHT22;25561;48.888;8.736;2023-02-24T06:59:20;7.60;99.90
34522;DHT22;25561;48.888;8.736;2023-02-24T07:02:22;7.80;99.90
34522;DHT22;25561;48.888;8.736;2023-02-24T07:05:27;7.80;99.90
34522;DHT22;25561;48.888;8.736;2023-02-24T07:08:34;7.90;99.90
34522;DHT22;25561;48.888;8.736;2023-02-24T07:11:39;8.10;99.90
34522;DHT22;25561;48.888;8.736;2023-02-24T07:14:47;8.30;99.90
34522;DHT22;25561;48.888;8.736;2023-02-24T07:17:52;8.40;99.90
34522;DHT22;25561;48.888;8.736;2023-02-24T07:20:54;8.40;99.90
34522;DHT22;25561;48.888;8.736;2023-02-24T07:23:56;8.50;99.90
34522;DHT22;25561;48.888;8.736;2023-02-24T07:27:02;8.40;99.90
34522;DHT22;25561;48.888;8.736;2023-02-24T07:30:04;8.40;99.90
34522;DHT22;25561;48.888;8.736;2023-02-24T07:33:10;8.50;99.90
34522;DHT22;25561;48.888;8.736;2023-02-24T07:36:14;8.30;99.90
34522;DHT22;25561;48.888;8.736;2023-02-24T07:39:16;8.10;99.90
34522;DHT22;25561;48.888;8.736;2023-02-24T07:42:19;8.20;99.90
34522;DHT22;25561;48.888;8.736;2023-02-24T07:45:22;8.30;99.90
34522;DHT22;25561;48.888;8.736;2023-02-24T07:48:23;8.50;99.90
34522;DHT22;25561;48.888;8.736;2023-02-24T07:51:27;8.60;99.90
34522;DHT22;25561;48.888;8.736;2023-02-24T07:54:30;8.70;99.90
34522;DHT22;25561;48.888;8.736;2023-02-24T07:57:31;8.50;99.90
34522;DHT22;25561;48.888;8.736;2023-02-24T08:00:33;8.50;99.90
34522;DHT22;25561;48.888;8.736;2023-02-24T08:03:56;8.20;99.90
34522;DHT22;25561;48.888;8.736;2023-02-24T08:06:58;8.40;99.90
34522;DHT22;25561;48.888;8.736;2023-02-24T08:10:04;8.30;99.90
34522;DHT22;25561;48.888;8.736;2023-02-24T08:13:24;8.50;99.90
34522;DHT22;25561;48.888;8.736;2023-02-24T08:16:26;8.60;99.90
34522;DHT22;25561;48.888;8.736;2023-02-24T08:19:39;8.70;99.90
34522;DHT22;25561;48.888;8.736;2023-02-24T08:22:42;8.80;99.90
34522;DHT22;25561;48.888;8.736;2023-02-24T08:25:47;8.80;99.90
34522;DHT22;25561;48.888;8.736;2023-02-24T08:28:48;8.90;99.90
34522;DHT22;25561;48.888;8.736;2023-02-24T08:31:52;8.90;99.90
34522;DHT22;25561;48.888;8.736;2023-02-24T08:34:53;9.20;99.90
34522;DHT22;25561;48.888;8.736;2023-02-24T08:38:04;9.50;99.90
34522;DHT22;25561;48.888;8.736;2023-02-24T08:41:13;9.80;99.90
34522;DHT22;25561;48.888;8.736;2023-02-24T08:44:19;10.00;99.90
34522;DHT22;25561;48.888;8.736;2023-02-24T08:47:21;10.20;99.90
34522;DHT22;25561;48.888;8.736;2023-02-24T08:50:31;10.10;99.90
34522;DHT22;25561;48.888;8.736;2023-02-24T08:53:35;10.10;99.90
34522;DHT22;25561;48.888;8.736;2023-02-24T08:56:43;10.20;99.90
34522;DHT22;25561;48.888;8.736;2023-02-24T08:59:49;10.00;99.90
34522;DHT22;25561;48.888;8.736;2023-02-24T09:02:51;10.10;99.90
34522;DHT22;25561;48.888;8.736;2023-02-24T09:06:05;10.10;99.90
34522;DHT22;25561;48.888;8.736;2023-02-24T09:09:07;10.10;99.90
34522;DHT22;25561;48.888;8.736;2023-02-24T09:12:18;10.10;99.90
34522;DHT22;25561;48.888;8.736;2023-02-24T09:15:24;10.00;99.90
34522;DHT22;25561;48.888;8.736;2023-02-24T09:18:42;9.90;99.90
34522;DHT22;25561;48.888;8.736;2023-02-24T09:21:43;9.90;99.90
34522;DHT22;25561;48.888;8.736;2023-02-24T09:24:48;10.00;99.90
34522;DHT22;25561;48.888;8.736;2023-02-24T09:27:54;10.00;99.90
34522;DHT22;25561;48.888;8.736;2023-02-24T09:30:57;9.90;99.90
34522;DHT22;25561;48.888;8.736;2023-02-24T09:34:00;9.70;99.90
34522;DHT22;25561;48.888;8.736;2023-02-24T09:37:04;9.50;99.90
34522;DHT22;25561;48.888;8.736;2023-02-24T09:40:07;9.50;99.90
34522;DHT22;25561;48.888;8.736;2023-02-24T09:43:24;9.40;99.90
34522;DHT22;25561;48.888;8.736;2023-02-24T09:46:46;9.20;99.90
34522;DHT22;25561;48.888;8.736;2023-02-24T09:49:57;8.90;99.90
34522;DHT22;25561;48.888;8.736;2023-02-24T09:53:09;8.90;99.90
34522;DHT22;25561;48.888;8.736;2023-02-24T09:56:27;8.90;99.90
34522;DHT22;25561;48.888;8.736;2023-02-24T10:02:43;8.70;99.90
34522;DHT22;25561;48.888;8.736;2023-02-24T10:06:22;8.70;99.90
34522;DHT22;25561;48.888;8.736;2023-02-24T10:09:38;8.60;99.90
34522;DHT22;25561;48.888;8.736;2023-02-24T10:12:41;8.60;99.90
34522;DHT22;25561;48.888;8.736;2023-02-24T10:15:45;8.60;99.90
34522;DHT22;25561;48.888;8.736;2023-02-24T10:19:04;8.70;99.90
34522;DHT22;25561;48.888;8.736;2023-02-24T10:22:33;8.70;99.90
34522;DHT22;25561;48.888;8.736;2023-02-24T10:25:48;8.80;99.90
34522;DHT22;25561;48.888;8.736;2023-02-24T10:32:22;8.90;99.90
34522;DHT22;25561;48.888;8.736;2023-02-24T10:35:34;8.90;99.90
34522;DHT22;25561;48.888;8.736;2023-02-24T10:38:38;8.80;99.90
34522;DHT22;25561;48.888;8.736;2023-02-24T10:41:55;8.80;99.90
34522;DHT22;25561;48.888;8.736;2023-02-24T10:45:23;8.80;99.90
34522;DHT22;25561;48.888;8.736;2023-02-24T10:48:24;9.00;99.90
34522;DHT22;25561;48.888;8.736;2023-02-24T10:51:47;8.80;99.90
34522;DHT22;25561;48.888;8.736;2023-02-24T10:54:51;8.90;99.90
34522;DHT22;25561;48.888;8.736;2023-02-24T11:01:30;8.90;99.90
34522;DHT22;25561;48.888;8.736;2023-02-24T11:04:44;8.90;99.90
34522;DHT22;25561;48.888;8.736;2023-02-24T11:08:10;9.20;99.90
34522;DHT22;25561;48.888;8.736;2023-02-24T11:11:19;9.40;99.90
34522;DHT22;25561;48.888;8.736;2023-02-24T11:14:26;9.60;99.90
34522;DHT22;25561;48.888;8.736;2023-02-24T11:17:49;9.60;99.90
34522;DHT22;25561;48.888;8.736;2023-02-24T11:21:02;9.60;99.90
34522;DHT22;25561;48.888;8.736;2023-02-24T11:24:04;9.70;99.90
34522;DHT22;25561;48.888;8.736;2023-02-24T11:27:08;9.90;99.90
34522;DHT22;25561;48.888;8.736;2023-02-24T11:34:07;10.20;99.90
34522;DHT22;25561;48.888;8.736;2023-02-24T11:37:23;10.50;99.90
34522;DHT22;25561;48.888;8.736;2023-02-24T11:40:31;10.60;99.90
34522;DHT22;25561;48.888;8.736;2023-02-24T11:43:38;10.30;99.90
34522;DHT22;25561;48.888;8.736;2023-02-24T11:46:45;10.20;99.90
34522;DHT22;25561;48.888;8.736;2023-02-24T11:50:00;10.60;99.90
34522;DHT22;25561;48.888;8.736;2023-02-24T11:56:30;10.20;99.90
34522;DHT22;25561;48.888;8.736;2023-02-24T11:59:35;10.40;99.90
34522;DHT22;25561;48.888;8.736;2023-02-24T12:02:59;10.80;99.90
34522;DHT22;25561;48.888;8.736;2023-02-24T12:06:15;11.10;99.90
34522;DHT22;25561;48.888;8.736;2023-02-24T12:09:24;11.20;99.90
34522;DHT22;25561;48.888;8.736;2023-02-24T12:12:41;11.30;99.90
34522;DHT22;25561;48.888;8.736;2023-02-24T12:19:05;11.50;99.90
34522;DHT22;25561;48.888;8.736;2023-02-24T12:22:14;11.40;99.90
34522;DHT22;25561;48.888;8.736;2023-02-24T12:25:18;11.70;99.90
34522;DHT22;25561;48.888;8.736;2023-02-24T12:28:53;11.90;99.90
34522;DHT22;25561;48.888;8.736;2023-02-24T12:38:38;11.90;99.90
34522;DHT22;25561;48.888;8.736;2023-02-24T12:42:06;11.50;99.90
34522;DHT22;25561;48.888;8.736;2023-02-24T12:45:28;10.70;99.90
34522;DHT22;25561;48.888;8.736;2023-02-24T12:55:35;10.80;99.90
34522;DHT22;25561;48.888;8.736;2023-02-24T12:58:46;10.70;99.90
34522;DHT22;25561;48.888;8.736;2023-02-24T13:08:42;10.30;99.90
34522;DHT22;25561;48.888;8.736;2023-02-24T13:11:53;10.30;99.90
34522;DHT22;25561;48.888;8.736;2023-02-24T13:14:55;10.50;99.90
34522;DHT22;25561;48.888;8.736;2023-02-24T13:17:57;10.50;99.90
34522;DHT22;25561;48.888;8.736;2023-02-24T13:21:08;10.80;99.90
34522;DHT22;25561;48.888;8.736;2023-02-24T13:24:20;11.00;99.90
34522;DHT22;25561;48.888;8.736;2023-02-24T13:27:28;10.90;99.90
34522;DHT22;25561;48.888;8.736;2023-02-24T13:30:40;10.60;99.90
34522;DHT22;25561;48.888;8.736;2023-02-24T13:33:43;10.60;99.90
34522;DHT22;25561;48.888;8.736;2023-02-24T13:36:47;10.70;99.90
34522;DHT22;25561;48.888;8.736;2023-02-24T13:39:50;10.70;99.90
34522;DHT22;25561;48.888;8.736;2023-02-24T13:45:59;10.50;99.90
34522;DHT22;25561;48.888;8.736;2023-02-24T13:49:24;10.70;99.90
34522;DHT22;25561;48.888;8.736;2023-02-24T13:56:19;10.90;99.90
34522;DHT22;25561;48.888;8.736;2023-02-24T14:02:44;10.90;99.90
34522;DHT22;25561;48.888;8.736;2023-02-24T14:05:47;10.80;99.90
34522;DHT22;25561;48.888;8.736;2023-02-24T14:08:53;10.70;99.90
34522;DHT22;25561;48.888;8.736;2023-02-24T14:15:19;10.50;99.90
34522;DHT22;25561;48.888;8.736;2023-02-24T14:18:25;10.40;99.90
34522;DHT22;25561;48.888;8.736;2023-02-24T14:21:31;10.10;99.90
34522;DHT22;25561;48.888;8.736;2023-02-24T14:24:33;10.10;99.90
34522;DHT22;25561;48.888;8.736;2023-02-24T14:27:36;10.20;99.90
34522;DHT22;25561;48.888;8.736;2023-02-24T14:30:40;10.30;99.90
34522;DHT22;25561;48.888;8.736;2023-02-24T14:33:44;10.10;99.90
34522;DHT22;25561;48.888;8.736;2023-02-24T14:36:47;9.90;99.90
34522;DHT22;25561;48.888;8.736;2023-02-24T14:39:55;9.80;99.90
34522;DHT22;25561;48.888;8.736;2023-02-24T14:42:57;9.80;99.90
34522;DHT22;25561;48.888;8.736;2023-02-24T14:46:04;9.70;99.90
34522;DHT22;25561;48.888;8.736;2023-02-24T14:49:23;9.50;99.90
34522;DHT22;25561;48.888;8.736;2023-02-24T14:55:37;9.70;99.90
34522;DHT22;25561;48.888;8.736;2023-02-24T14:59:01;9.80;99.90
34522;DHT22;25561;48.888;8.736;2023-02-24T15:02:14;9.70;99.90
34522;DHT22;25561;48.888;8.736;2023-02-24T15:05:19;9.50;99.90
34522;DHT22;25561;48.888;8.736;2023-02-24T15:08:33;9.60;99.90
34522;DHT22;25561;48.888;8.736;2023-02-24T15:11:35;9.70;99.90
34522;DHT22;25561;48.888;8.736;2023-02-24T15:14:38;9.90;99.90
34522;DHT22;25561;48.888;8.736;2023-02-24T15:17:41;9.80;99.90
34522;DHT22;25561;48.888;8.736;2023-02-24T15:20:43;9.80;99.90
34522;DHT22;25561;48.888;8.736;2023-02-24T15:23:46;9.70;99.90
34522;DHT22;25561;48.888;8.736;2023-02-24T15:33:36;9.80;99.90
34522;DHT22;25561;48.888;8.736;2023-02-24T15:36:39;9.70;99.90
34522;DHT22;25561;48.888;8.736;2023-02-24T15:39:42;9.60;99.90
34522;DHT22;25561;48.888;8.736;2023-02-24T15:43:29;9.50;99.90
34522;DHT22;25561;48.888;8.736;2023-02-24T15:46:33;9.40;99.90
34522;DHT22;25561;48.888;8.736;2023-02-24T15:49:35;9.50;99.90
34522;DHT22;25561;48.888;8.736;2023-02-24T15:52:36;9.40;99.90
34522;DHT22;25561;48.888;8.736;2023-02-24T15:55:40;9.20;99.90
34522;DHT22;25561;48.888;8.736;2023-02-24T15:58:43;9.10;99.90
34522;DHT22;25561;48.888;8.736;2023-02-24T16:01:45;9.00;99.90
34522;DHT22;25561;48.888;8.736;2023-02-24T16:04:49;9.10;99.90
34522;DHT22;25561;48.888;8.736;2023-02-24T16:07:51;9.00;99.90
34522;DHT22;25561;48.888;8.736;2023-02-24T16:10:55;9.10;99.90
34522;DHT22;25561;48.888;8.736;2023-02-24T16:13:58;9.10;99.90
34522;DHT22;25561;48.888;8.736;2023-02-24T16:17:03;9.10;99.90
34522;DHT22;25561;48.888;8.736;2023-02-24T16:20:12;9.00;99.90
34522;DHT22;25561;48.888;8.736;2023-02-24T16:23:14;9.00;99.90
34522;DHT22;25561;48.888;8.736;2023-02-24T16:26:18;9.00;99.90
34522;DHT22;25561;48.888;8.736;2023-02-24T16:29:20;9.00;99.90
34522;DHT22;25561;48.888;8.736;2023-02-24T16:32:22;8.90;99.90
34522;DHT22;25561;48.888;8.736;2023-02-24T16:35:27;8.70;99.90
34522;DHT22;25561;48.888;8.736;2023-02-24T16:38:29;8.70;99.90
34522;DHT22;25561;48.888;8.736;2023-02-24T16:41:31;8.70;99.90
34522;DHT22;25561;48.888;8.736;2023-02-24T16:44:33;8.70;99.90
34522;DHT22;25561;48.888;8.736;2023-02-24T16:47:35;8.60;99.90
34522;DHT22;25561;48.888;8.736;2023-02-24T16:50:39;8.60;99.90
34522;DHT22;25561;48.888;8.736;2023-02-24T16:53:42;8.50;99.90
34522;DHT22;25561;48.888;8.736;2023-02-24T16:56:43;8.50;99.90
34522;DHT22;25561;48.888;8.736;2023-02-24T16:59:46;8.40;99.90
